sensor_id;sensor_type;location;lat;lon;timestamp;P1;durP1;ratioP1;P2;durP2;ratioP2
56670;SDS011;42545;50.054;8.306;2023-03-17T00:00:07;3.45;;;2.15;;
56670;SDS011;42545;50.054;8.306;2023-03-17T00:02:36;2.97;;;2.20;;
56670;SDS011;42545;50.054;8.306;2023-03-17T00:05:09;4.70;;;2.45;;
56670;SDS011;42545;50.054;8.306;2023-03-17T00:07:40;3.60;;;2.53;;
56670;SDS011;42545;50.054;8.306;2023-03-17T00:10:09;3.83;;;2.47;;
56670;SDS011;42545;50.054;8.306;2023-03-17T00:12:40;3.00;;;2.30;;
56670;SDS011;42545;50.054;8.306;2023-03-17T00:15:08;3.30;;;2.20;;
56670;SDS011;42545;50.054;8.306;2023-03-17T00:17:35;3.78;;;2.50;;
56670;SDS011;42545;50.054;8.306;2023-03-17T00:20:02;4.53;;;2.20;;
56670;SDS011;42545;50.054;8.306;2023-03-17T00:22:30;3.08;;;2.05;;
56670;SDS011;42545;50.054;8.306;2023-03-17T00:24:57;3.92;;;2.60;;
56670;SDS011;42545;50.054;8.306;2023-03-17T00:27:23;3.75;;;2.20;;
56670;SDS011;42545;50.054;8.306;2023-03-17T00:29:53;3.47;;;2.20;;
56670;SDS011;42545;50.054;8.306;2023-03-17T00:32:20;5.05;;;2.45;;
56670;SDS011;42545;50.054;8.306;2023-03-17T00:34:47;4.03;;;2.22;;
56670;SDS011;42545;50.054;8.306;2023-03-17T00:37:14;3.17;;;2.00;;
56670;SDS011;42545;50.054;8.306;2023-03-17T00:39:41;3.25;;;2.13;;
56670;SDS011;42545;50.054;8.306;2023-03-17T00:42:07;4.63;;;2.65;;
56670;SDS011;42545;50.054;8.306;2023-03-17T00:44:35;3.58;;;2.03;;
56670;SDS011;42545;50.054;8.306;2023-03-17T00:47:03;3.33;;;2.10;;
56670;SDS011;42545;50.054;8.306;2023-03-17T00:49:31;3.88;;;2.38;;
56670;SDS011;42545;50.054;8.306;2023-03-17T00:51:58;4.55;;;2.83;;
56670;SDS011;42545;50.054;8.306;2023-03-17T00:54:25;4.85;;;3.05;;
56670;SDS011;42545;50.054;8.306;2023-03-17T00:56:52;5.85;;;3.15;;
56670;SDS011;42545;50.054;8.306;2023-03-17T00:59:22;4.88;;;3.30;;
56670;SDS011;42545;50.054;8.306;2023-03-17T01:01:51;4.97;;;3.35;;
56670;SDS011;42545;50.054;8.306;2023-03-17T01:04:20;6.75;;;3.38;;
56670;SDS011;42545;50.054;8.306;2023-03-17T01:06:47;5.20;;;3.67;;
56670;SDS011;42545;50.054;8.306;2023-03-17T01:09:16;5.90;;;3.33;;
56670;SDS011;42545;50.054;8.306;2023-03-17T01:11:45;5.85;;;3.67;;
56670;SDS011;42545;50.054;8.306;2023-03-17T01:14:12;5.57;;;3.47;;
56670;SDS011;42545;50.054;8.306;2023-03-17T01:16:39;7.07;;;3.75;;
56670;SDS011;42545;50.054;8.306;2023-03-17T01:19:06;7.45;;;3.30;;
56670;SDS011;42545;50.054;8.306;2023-03-17T01:21:37;5.18;;;3.58;;
56670;SDS011;42545;50.054;8.306;2023-03-17T01:24:05;4.43;;;2.85;;
56670;SDS011;42545;50.054;8.306;2023-03-17T01:26:32;4.50;;;3.30;;
56670;SDS011;42545;50.054;8.306;2023-03-17T01:28:59;4.50;;;3.15;;
56670;SDS011;42545;50.054;8.306;2023-03-17T01:31:26;3.47;;;2.63;;
56670;SDS011;42545;50.054;8.306;2023-03-17T01:33:52;3.78;;;2.78;;
56670;SDS011;42545;50.054;8.306;2023-03-17T01:36:19;4.20;;;2.70;;
56670;SDS011;42545;50.054;8.306;2023-03-17T01:38:47;3.58;;;2.55;;
56670;SDS011;42545;50.054;8.306;2023-03-17T01:41:15;4.47;;;2.95;;
56670;SDS011;42545;50.054;8.306;2023-03-17T01:43:42;4.78;;;2.80;;
56670;SDS011;42545;50.054;8.306;2023-03-17T01:46:13;5.20;;;2.78;;
56670;SDS011;42545;50.054;8.306;2023-03-17T01:48:45;4.70;;;2.47;;
56670;SDS011;42545;50.054;8.306;2023-03-17T01:51:17;4.32;;;3.08;;
56670;SDS011;42545;50.054;8.306;2023-03-17T01:53:49;3.67;;;2.53;;
56670;SDS011;42545;50.054;8.306;2023-03-17T01:56:17;3.90;;;3.00;;
56670;SDS011;42545;50.054;8.306;2023-03-17T01:58:44;3.33;;;2.50;;
56670;SDS011;42545;50.054;8.306;2023-03-17T02:01:14;4.30;;;2.65;;
56670;SDS011;42545;50.054;8.306;2023-03-17T02:03:41;4.50;;;2.80;;
56670;SDS011;42545;50.054;8.306;2023-03-17T02:06:11;3.35;;;2.63;;
56670;SDS011;42545;50.054;8.306;2023-03-17T02:08:38;3.08;;;2.22;;
56670;SDS011;42545;50.054;8.306;2023-03-17T02:11:06;3.15;;;2.38;;
56670;SDS011;42545;50.054;8.306;2023-03-17T02:13:33;3.58;;;2.40;;
56670;SDS011;42545;50.054;8.306;2023-03-17T02:16:01;3.30;;;2.30;;
56670;SDS011;42545;50.054;8.306;2023-03-17T02:18:29;3.20;;;2.13;;
56670;SDS011;42545;50.054;8.306;2023-03-17T02:23:53;2.70;;;2.10;;
56670;SDS011;42545;50.054;8.306;2023-03-17T02:26:20;3.50;;;2.33;;
56670;SDS011;42545;50.054;8.306;2023-03-17T02:28:50;2.55;;;2.08;;
56670;SDS011;42545;50.054;8.306;2023-03-17T02:31:17;2.83;;;1.80;;
56670;SDS011;42545;50.054;8.306;2023-03-17T02:33:45;2.63;;;2.00;;
56670;SDS011;42545;50.054;8.306;2023-03-17T02:36:12;2.42;;;1.90;;
56670;SDS011;42545;50.054;8.306;2023-03-17T02:38:40;3.00;;;1.75;;
56670;SDS011;42545;50.054;8.306;2023-03-17T02:41:07;2.63;;;1.90;;
56670;SDS011;42545;50.054;8.306;2023-03-17T02:43:34;2.45;;;1.80;;
56670;SDS011;42545;50.054;8.306;2023-03-17T02:46:01;2.85;;;1.80;;
56670;SDS011;42545;50.054;8.306;2023-03-17T02:48:29;2.40;;;1.67;;
56670;SDS011;42545;50.054;8.306;2023-03-17T02:50:57;3.00;;;1.80;;
56670;SDS011;42545;50.054;8.306;2023-03-17T02:53:24;2.25;;;1.60;;
56670;SDS011;42545;50.054;8.306;2023-03-17T02:55:52;3.25;;;1.75;;
56670;SDS011;42545;50.054;8.306;2023-03-17T02:58:19;2.35;;;1.40;;
56670;SDS011;42545;50.054;8.306;2023-03-17T03:00:46;2.08;;;1.30;;
56670;SDS011;42545;50.054;8.306;2023-03-17T03:03:13;2.20;;;1.50;;
56670;SDS011;42545;50.054;8.306;2023-03-17T03:05:41;1.95;;;1.20;;
56670;SDS011;42545;50.054;8.306;2023-03-17T03:08:08;1.77;;;1.20;;
56670;SDS011;42545;50.054;8.306;2023-03-17T03:10:35;1.30;;;1.00;;
56670;SDS011;42545;50.054;8.306;2023-03-17T03:13:03;1.88;;;1.30;;
56670;SDS011;42545;50.054;8.306;2023-03-17T03:15:30;1.73;;;1.20;;
56670;SDS011;42545;50.054;8.306;2023-03-17T03:17:56;2.90;;;1.70;;
56670;SDS011;42545;50.054;8.306;2023-03-17T03:20:24;2.95;;;2.33;;
56670;SDS011;42545;50.054;8.306;2023-03-17T03:22:50;2.20;;;1.60;;
56670;SDS011;42545;50.054;8.306;2023-03-17T03:25:17;3.28;;;2.55;;
56670;SDS011;42545;50.054;8.306;2023-03-17T03:27:43;4.70;;;3.00;;
56670;SDS011;42545;50.054;8.306;2023-03-17T03:30:12;3.95;;;2.80;;
56670;SDS011;42545;50.054;8.306;2023-03-17T03:32:38;4.30;;;2.70;;
56670;SDS011;42545;50.054;8.306;2023-03-17T03:35:05;3.63;;;2.47;;
56670;SDS011;42545;50.054;8.306;2023-03-17T03:37:33;3.55;;;2.20;;
56670;SDS011;42545;50.054;8.306;2023-03-17T03:40:01;2.90;;;2.05;;
56670;SDS011;42545;50.054;8.306;2023-03-17T03:42:27;2.67;;;1.70;;
56670;SDS011;42545;50.054;8.306;2023-03-17T03:44:54;2.83;;;1.70;;
56670;SDS011;42545;50.054;8.306;2023-03-17T03:47:22;2.10;;;1.52;;
56670;SDS011;42545;50.054;8.306;2023-03-17T03:49:49;2.42;;;1.75;;
56670;SDS011;42545;50.054;8.306;2023-03-17T03:52:15;2.08;;;1.45;;
56670;SDS011;42545;50.054;8.306;2023-03-17T03:54:42;2.17;;;1.50;;
56670;SDS011;42545;50.054;8.306;2023-03-17T03:57:09;2.47;;;1.60;;
56670;SDS011;42545;50.054;8.306;2023-03-17T03:59:35;2.40;;;1.98;;
56670;SDS011;42545;50.054;8.306;2023-03-17T04:02:02;2.40;;;1.73;;
56670;SDS011;42545;50.054;8.306;2023-03-17T04:04:32;2.42;;;1.60;;
56670;SDS011;42545;50.054;8.306;2023-03-17T04:06:59;1.67;;;1.25;;
56670;SDS011;42545;50.054;8.306;2023-03-17T04:09:25;2.15;;;1.30;;
56670;SDS011;42545;50.054;8.306;2023-03-17T04:11:52;3.20;;;1.60;;
56670;SDS011;42545;50.054;8.306;2023-03-17T04:14:19;1.70;;;1.30;;
56670;SDS011;42545;50.054;8.306;2023-03-17T04:16:45;1.50;;;1.23;;
56670;SDS011;42545;50.054;8.306;2023-03-17T04:19:12;1.80;;;1.20;;
56670;SDS011;42545;50.054;8.306;2023-03-17T04:21:40;2.17;;;1.10;;
56670;SDS011;42545;50.054;8.306;2023-03-17T04:24:07;2.05;;;1.60;;
56670;SDS011;42545;50.054;8.306;2023-03-17T04:26:34;1.40;;;1.10;;
56670;SDS011;42545;50.054;8.306;2023-03-17T04:29:01;2.55;;;1.80;;
56670;SDS011;42545;50.054;8.306;2023-03-17T04:31:28;2.75;;;1.98;;
56670;SDS011;42545;50.054;8.306;2023-03-17T04:33:54;3.72;;;1.88;;
56670;SDS011;42545;50.054;8.306;2023-03-17T04:36:22;4.38;;;2.83;;
56670;SDS011;42545;50.054;8.306;2023-03-17T04:38:50;2.85;;;2.08;;
56670;SDS011;42545;50.054;8.306;2023-03-17T04:41:17;2.65;;;1.80;;
56670;SDS011;42545;50.054;8.306;2023-03-17T04:43:45;3.50;;;2.05;;
56670;SDS011;42545;50.054;8.306;2023-03-17T04:46:12;3.22;;;2.25;;
56670;SDS011;42545;50.054;8.306;2023-03-17T04:48:39;5.80;;;3.50;;
56670;SDS011;42545;50.054;8.306;2023-03-17T04:51:06;5.43;;;3.00;;
56670;SDS011;42545;50.054;8.306;2023-03-17T04:53:33;4.90;;;3.00;;
56670;SDS011;42545;50.054;8.306;2023-03-17T04:56:01;3.60;;;2.45;;
56670;SDS011;42545;50.054;8.306;2023-03-17T04:58:27;4.03;;;2.58;;
56670;SDS011;42545;50.054;8.306;2023-03-17T05:00:54;3.40;;;2.28;;
56670;SDS011;42545;50.054;8.306;2023-03-17T05:03:20;2.42;;;2.00;;
56670;SDS011;42545;50.054;8.306;2023-03-17T05:05:49;3.03;;;2.10;;
56670;SDS011;42545;50.054;8.306;2023-03-17T05:08:16;2.67;;;1.80;;
56670;SDS011;42545;50.054;8.306;2023-03-17T05:10:44;2.40;;;1.70;;
56670;SDS011;42545;50.054;8.306;2023-03-17T05:13:12;2.63;;;1.90;;
56670;SDS011;42545;50.054;8.306;2023-03-17T05:15:38;2.25;;;1.70;;
56670;SDS011;42545;50.054;8.306;2023-03-17T05:18:05;2.13;;;1.60;;
56670;SDS011;42545;50.054;8.306;2023-03-17T05:20:33;3.72;;;2.15;;
56670;SDS011;42545;50.054;8.306;2023-03-17T05:22:59;2.47;;;1.67;;
56670;SDS011;42545;50.054;8.306;2023-03-17T05:25:26;2.33;;;1.70;;
56670;SDS011;42545;50.054;8.306;2023-03-17T05:27:52;2.28;;;1.77;;
56670;SDS011;42545;50.054;8.306;2023-03-17T05:30:20;2.97;;;2.05;;
56670;SDS011;42545;50.054;8.306;2023-03-17T05:32:47;3.17;;;1.90;;
56670;SDS011;42545;50.054;8.306;2023-03-17T05:35:14;2.95;;;1.85;;
56670;SDS011;42545;50.054;8.306;2023-03-17T05:37:41;2.20;;;1.48;;
56670;SDS011;42545;50.054;8.306;2023-03-17T05:40:08;2.60;;;1.58;;
56670;SDS011;42545;50.054;8.306;2023-03-17T05:42:36;3.80;;;1.90;;
56670;SDS011;42545;50.054;8.306;2023-03-17T05:45:03;2.17;;;1.63;;
56670;SDS011;42545;50.054;8.306;2023-03-17T05:47:33;1.92;;;1.55;;
56670;SDS011;42545;50.054;8.306;2023-03-17T05:50:00;3.05;;;2.00;;
56670;SDS011;42545;50.054;8.306;2023-03-17T05:52:27;3.25;;;2.10;;
56670;SDS011;42545;50.054;8.306;2023-03-17T05:54:55;3.20;;;2.10;;
56670;SDS011;42545;50.054;8.306;2023-03-17T05:57:22;3.10;;;2.10;;
56670;SDS011;42545;50.054;8.306;2023-03-17T05:59:49;2.92;;;1.80;;
56670;SDS011;42545;50.054;8.306;2023-03-17T06:02:16;2.58;;;1.70;;
56670;SDS011;42545;50.054;8.306;2023-03-17T06:04:44;3.03;;;2.00;;
56670;SDS011;42545;50.054;8.306;2023-03-17T06:07:11;3.20;;;2.05;;
56670;SDS011;42545;50.054;8.306;2023-03-17T06:09:38;3.05;;;2.15;;
56670;SDS011;42545;50.054;8.306;2023-03-17T06:12:05;2.25;;;1.83;;
56670;SDS011;42545;50.054;8.306;2023-03-17T06:14:33;3.42;;;2.10;;
56670;SDS011;42545;50.054;8.306;2023-03-17T06:17:00;2.70;;;2.10;;
56670;SDS011;42545;50.054;8.306;2023-03-17T06:19:27;2.67;;;1.67;;
56670;SDS011;42545;50.054;8.306;2023-03-17T06:21:55;2.60;;;1.58;;
56670;SDS011;42545;50.054;8.306;2023-03-17T06:24:22;2.03;;;1.52;;
56670;SDS011;42545;50.054;8.306;2023-03-17T06:26:50;4.28;;;2.30;;
56670;SDS011;42545;50.054;8.306;2023-03-17T06:29:17;3.38;;;1.80;;
56670;SDS011;42545;50.054;8.306;2023-03-17T06:31:44;2.28;;;1.63;;
56670;SDS011;42545;50.054;8.306;2023-03-17T06:34:14;9.15;;;5.03;;
56670;SDS011;42545;50.054;8.306;2023-03-17T06:36:43;8.50;;;4.50;;
56670;SDS011;42545;50.054;8.306;2023-03-17T06:39:14;7.53;;;4.57;;
56670;SDS011;42545;50.054;8.306;2023-03-17T06:41:42;7.20;;;3.88;;
56670;SDS011;42545;50.054;8.306;2023-03-17T06:44:09;7.78;;;4.18;;
56670;SDS011;42545;50.054;8.306;2023-03-17T06:46:35;6.95;;;4.18;;
56670;SDS011;42545;50.054;8.306;2023-03-17T06:49:02;7.10;;;4.18;;
56670;SDS011;42545;50.054;8.306;2023-03-17T06:51:29;4.78;;;3.63;;
56670;SDS011;42545;50.054;8.306;2023-03-17T06:53:58;5.38;;;3.65;;
56670;SDS011;42545;50.054;8.306;2023-03-17T06:56:26;6.03;;;3.20;;
56670;SDS011;42545;50.054;8.306;2023-03-17T06:58:53;5.20;;;3.08;;
56670;SDS011;42545;50.054;8.306;2023-03-17T07:01:20;5.50;;;3.10;;
56670;SDS011;42545;50.054;8.306;2023-03-17T07:03:46;5.10;;;2.70;;
56670;SDS011;42545;50.054;8.306;2023-03-17T07:06:13;4.78;;;3.30;;
56670;SDS011;42545;50.054;8.306;2023-03-17T07:08:40;4.35;;;2.72;;
56670;SDS011;42545;50.054;8.306;2023-03-17T07:11:07;3.67;;;2.55;;
56670;SDS011;42545;50.054;8.306;2023-03-17T07:13:35;3.47;;;2.50;;
56670;SDS011;42545;50.054;8.306;2023-03-17T07:16:03;4.43;;;2.70;;
56670;SDS011;42545;50.054;8.306;2023-03-17T07:18:31;4.18;;;2.90;;
56670;SDS011;42545;50.054;8.306;2023-03-17T07:20:58;3.78;;;2.47;;
56670;SDS011;42545;50.054;8.306;2023-03-17T07:23:26;6.20;;;4.22;;
56670;SDS011;42545;50.054;8.306;2023-03-17T07:25:53;4.00;;;2.63;;
56670;SDS011;42545;50.054;8.306;2023-03-17T07:28:21;3.60;;;2.60;;
56670;SDS011;42545;50.054;8.306;2023-03-17T07:30:49;4.88;;;2.92;;
56670;SDS011;42545;50.054;8.306;2023-03-17T07:33:16;3.67;;;2.60;;
56670;SDS011;42545;50.054;8.306;2023-03-17T07:35:45;5.30;;;3.40;;
56670;SDS011;42545;50.054;8.306;2023-03-17T07:38:12;3.90;;;2.97;;
56670;SDS011;42545;50.054;8.306;2023-03-17T07:40:41;4.50;;;3.00;;
56670;SDS011;42545;50.054;8.306;2023-03-17T07:43:08;3.35;;;2.42;;
56670;SDS011;42545;50.054;8.306;2023-03-17T07:45:35;4.75;;;3.03;;
56670;SDS011;42545;50.054;8.306;2023-03-17T07:48:04;4.63;;;3.10;;
56670;SDS011;42545;50.054;8.306;2023-03-17T07:50:32;6.20;;;3.47;;
56670;SDS011;42545;50.054;8.306;2023-03-17T07:53:00;5.95;;;3.78;;
56670;SDS011;42545;50.054;8.306;2023-03-17T07:55:27;9.35;;;5.05;;
56670;SDS011;42545;50.054;8.306;2023-03-17T07:57:56;6.35;;;4.15;;
56670;SDS011;42545;50.054;8.306;2023-03-17T08:00:23;6.22;;;4.15;;
56670;SDS011;42545;50.054;8.306;2023-03-17T08:02:51;7.53;;;4.28;;
56670;SDS011;42545;50.054;8.306;2023-03-17T08:05:25;6.13;;;4.38;;
56670;SDS011;42545;50.054;8.306;2023-03-17T08:07:55;6.13;;;3.92;;
56670;SDS011;42545;50.054;8.306;2023-03-17T08:10:21;8.75;;;4.20;;
56670;SDS011;42545;50.054;8.306;2023-03-17T08:12:48;7.90;;;4.25;;
56670;SDS011;42545;50.054;8.306;2023-03-17T08:15:17;6.25;;;4.22;;
56670;SDS011;42545;50.054;8.306;2023-03-17T08:17:45;4.95;;;3.65;;
56670;SDS011;42545;50.054;8.306;2023-03-17T08:20:12;8.18;;;4.68;;
56670;SDS011;42545;50.054;8.306;2023-03-17T08:22:41;5.22;;;4.32;;
56670;SDS011;42545;50.054;8.306;2023-03-17T08:25:08;6.22;;;4.68;;
56670;SDS011;42545;50.054;8.306;2023-03-17T08:27:35;7.47;;;4.80;;
56670;SDS011;42545;50.054;8.306;2023-03-17T08:30:03;8.60;;;4.80;;
56670;SDS011;42545;50.054;8.306;2023-03-17T08:32:32;5.55;;;4.00;;
56670;SDS011;42545;50.054;8.306;2023-03-17T08:35:01;6.28;;;4.65;;
56670;SDS011;42545;50.054;8.306;2023-03-17T08:37:30;7.82;;;4.65;;
56670;SDS011;42545;50.054;8.306;2023-03-17T08:40:00;6.05;;;4.38;;
56670;SDS011;42545;50.054;8.306;2023-03-17T08:42:27;4.28;;;3.58;;
56670;SDS011;42545;50.054;8.306;2023-03-17T08:44:54;7.40;;;4.88;;
56670;SDS011;42545;50.054;8.306;2023-03-17T08:47:22;5.93;;;4.07;;
56670;SDS011;42545;50.054;8.306;2023-03-17T08:49:48;7.38;;;4.65;;
56670;SDS011;42545;50.054;8.306;2023-03-17T08:52:15;10.25;;;5.35;;
56670;SDS011;42545;50.054;8.306;2023-03-17T08:54:42;6.00;;;4.40;;
56670;SDS011;42545;50.054;8.306;2023-03-17T08:57:10;6.35;;;4.45;;
56670;SDS011;42545;50.054;8.306;2023-03-17T08:59:37;8.23;;;5.18;;
56670;SDS011;42545;50.054;8.306;2023-03-17T09:02:04;5.80;;;4.00;;
56670;SDS011;42545;50.054;8.306;2023-03-17T09:04:31;6.45;;;3.83;;
56670;SDS011;42545;50.054;8.306;2023-03-17T09:07:00;7.07;;;4.10;;
56670;SDS011;42545;50.054;8.306;2023-03-17T09:09:26;5.78;;;3.78;;
56670;SDS011;42545;50.054;8.306;2023-03-17T09:11:54;4.80;;;3.25;;
56670;SDS011;42545;50.054;8.306;2023-03-17T09:14:24;5.25;;;3.83;;
56670;SDS011;42545;50.054;8.306;2023-03-17T09:16:51;7.25;;;3.67;;
56670;SDS011;42545;50.054;8.306;2023-03-17T09:19:18;10.27;;;6.15;;
56670;SDS011;42545;50.054;8.306;2023-03-17T09:21:46;5.45;;;3.95;;
56670;SDS011;42545;50.054;8.306;2023-03-17T09:24:13;6.25;;;3.90;;
56670;SDS011;42545;50.054;8.306;2023-03-17T09:26:42;6.55;;;4.00;;
56670;SDS011;42545;50.054;8.306;2023-03-17T09:29:09;5.10;;;3.60;;
56670;SDS011;42545;50.054;8.306;2023-03-17T09:31:39;7.70;;;4.72;;
56670;SDS011;42545;50.054;8.306;2023-03-17T09:34:07;8.23;;;4.50;;
56670;SDS011;42545;50.054;8.306;2023-03-17T09:36:33;9.48;;;5.47;;
56670;SDS011;42545;50.054;8.306;2023-03-17T09:39:00;5.68;;;3.85;;
56670;SDS011;42545;50.054;8.306;2023-03-17T09:41:36;6.97;;;4.03;;
56670;SDS011;42545;50.054;8.306;2023-03-17T09:44:17;6.82;;;5.13;;
56670;SDS011;42545;50.054;8.306;2023-03-17T09:46:59;6.65;;;3.63;;
56670;SDS011;42545;50.054;8.306;2023-03-17T09:49:36;6.97;;;5.05;;
56670;SDS011;42545;50.054;8.306;2023-03-17T09:52:09;6.00;;;4.47;;
56670;SDS011;42545;50.054;8.306;2023-03-17T09:57:09;6.35;;;4.47;;
56670;SDS011;42545;50.054;8.306;2023-03-17T09:59:41;5.47;;;3.53;;
56670;SDS011;42545;50.054;8.306;2023-03-17T10:02:14;4.78;;;3.08;;
56670;SDS011;42545;50.054;8.306;2023-03-17T10:04:44;4.00;;;3.45;;
56670;SDS011;42545;50.054;8.306;2023-03-17T10:07:12;5.57;;;3.25;;
56670;SDS011;42545;50.054;8.306;2023-03-17T10:09:43;5.40;;;3.47;;
56670;SDS011;42545;50.054;8.306;2023-03-17T10:12:13;4.95;;;3.38;;
56670;SDS011;42545;50.054;8.306;2023-03-17T10:14:50;4.30;;;2.97;;
56670;SDS011;42545;50.054;8.306;2023-03-17T10:17:27;5.10;;;3.30;;
56670;SDS011;42545;50.054;8.306;2023-03-17T10:19:58;3.72;;;2.55;;
56670;SDS011;42545;50.054;8.306;2023-03-17T10:22:29;4.18;;;3.10;;
56670;SDS011;42545;50.054;8.306;2023-03-17T10:25:00;3.42;;;2.50;;
56670;SDS011;42545;50.054;8.306;2023-03-17T10:27:30;5.10;;;3.45;;
56670;SDS011;42545;50.054;8.306;2023-03-17T10:30:03;5.25;;;3.13;;
56670;SDS011;42545;50.054;8.306;2023-03-17T10:32:32;4.65;;;3.17;;
56670;SDS011;42545;50.054;8.306;2023-03-17T10:35:03;3.50;;;2.42;;
56670;SDS011;42545;50.054;8.306;2023-03-17T10:37:31;4.32;;;3.17;;
56670;SDS011;42545;50.054;8.306;2023-03-17T10:40:07;4.80;;;3.30;;
56670;SDS011;42545;50.054;8.306;2023-03-17T10:42:45;4.70;;;3.05;;
56670;SDS011;42545;50.054;8.306;2023-03-17T10:45:13;4.55;;;2.95;;
56670;SDS011;42545;50.054;8.306;2023-03-17T10:47:44;8.75;;;3.97;;
56670;SDS011;42545;50.054;8.306;2023-03-17T10:50:18;6.10;;;3.35;;
56670;SDS011;42545;50.054;8.306;2023-03-17T10:52:51;5.82;;;3.22;;
56670;SDS011;42545;50.054;8.306;2023-03-17T10:55:19;3.67;;;2.45;;
56670;SDS011;42545;50.054;8.306;2023-03-17T10:57:48;6.07;;;3.70;;
56670;SDS011;42545;50.054;8.306;2023-03-17T11:00:19;4.55;;;3.60;;
56670;SDS011;42545;50.054;8.306;2023-03-17T11:02:52;6.88;;;4.13;;
56670;SDS011;42545;50.054;8.306;2023-03-17T11:05:23;4.03;;;2.90;;
56670;SDS011;42545;50.054;8.306;2023-03-17T11:07:55;3.63;;;2.90;;
56670;SDS011;42545;50.054;8.306;2023-03-17T11:10:35;4.60;;;3.22;;
56670;SDS011;42545;50.054;8.306;2023-03-17T11:13:03;5.40;;;3.28;;
56670;SDS011;42545;50.054;8.306;2023-03-17T11:15:31;5.13;;;3.53;;
56670;SDS011;42545;50.054;8.306;2023-03-17T11:18:01;4.13;;;2.67;;
56670;SDS011;42545;50.054;8.306;2023-03-17T11:20:39;5.03;;;3.17;;
56670;SDS011;42545;50.054;8.306;2023-03-17T11:23:13;4.45;;;2.90;;
56670;SDS011;42545;50.054;8.306;2023-03-17T11:25:47;3.80;;;2.88;;
56670;SDS011;42545;50.054;8.306;2023-03-17T11:28:20;2.70;;;2.40;;
56670;SDS011;42545;50.054;8.306;2023-03-17T11:30:55;3.38;;;2.47;;
56670;SDS011;42545;50.054;8.306;2023-03-17T11:33:32;4.07;;;2.70;;
56670;SDS011;42545;50.054;8.306;2023-03-17T11:36:07;3.90;;;2.47;;
56670;SDS011;42545;50.054;8.306;2023-03-17T11:38:42;2.95;;;2.30;;
56670;SDS011;42545;50.054;8.306;2023-03-17T11:41:29;5.43;;;2.90;;
56670;SDS011;42545;50.054;8.306;2023-03-17T11:44:09;3.28;;;2.58;;
56670;SDS011;42545;50.054;8.306;2023-03-17T11:46:49;3.10;;;2.45;;
56670;SDS011;42545;50.054;8.306;2023-03-17T11:49:27;7.85;;;4.15;;
56670;SDS011;42545;50.054;8.306;2023-03-17T11:52:02;5.75;;;3.53;;
56670;SDS011;42545;50.054;8.306;2023-03-17T11:54:38;4.65;;;2.75;;
56670;SDS011;42545;50.054;8.306;2023-03-17T11:57:15;4.35;;;2.83;;
56670;SDS011;42545;50.054;8.306;2023-03-17T11:59:46;4.20;;;2.92;;
56670;SDS011;42545;50.054;8.306;2023-03-17T12:02:21;4.13;;;2.63;;
56670;SDS011;42545;50.054;8.306;2023-03-17T12:04:54;3.97;;;2.75;;
56670;SDS011;42545;50.054;8.306;2023-03-17T12:07:24;4.13;;;3.00;;
56670;SDS011;42545;50.054;8.306;2023-03-17T12:09:56;7.45;;;3.78;;
56670;SDS011;42545;50.054;8.306;2023-03-17T12:12:29;4.38;;;3.17;;
56670;SDS011;42545;50.054;8.306;2023-03-17T12:15:02;4.47;;;3.15;;
56670;SDS011;42545;50.054;8.306;2023-03-17T12:17:38;5.70;;;3.25;;
56670;SDS011;42545;50.054;8.306;2023-03-17T12:20:15;6.63;;;3.53;;
56670;SDS011;42545;50.054;8.306;2023-03-17T12:22:47;16.38;;;5.00;;
56670;SDS011;42545;50.054;8.306;2023-03-17T12:25:22;13.50;;;5.25;;
56670;SDS011;42545;50.054;8.306;2023-03-17T12:27:54;4.82;;;2.80;;
56670;SDS011;42545;50.054;8.306;2023-03-17T12:30:27;5.43;;;3.67;;
56670;SDS011;42545;50.054;8.306;2023-03-17T12:32:59;4.05;;;2.80;;
56670;SDS011;42545;50.054;8.306;2023-03-17T12:35:35;5.38;;;3.53;;
56670;SDS011;42545;50.054;8.306;2023-03-17T12:38:04;3.33;;;2.55;;
56670;SDS011;42545;50.054;8.306;2023-03-17T12:40:35;5.28;;;3.50;;
56670;SDS011;42545;50.054;8.306;2023-03-17T12:43:27;10.73;;;4.20;;
56670;SDS011;42545;50.054;8.306;2023-03-17T12:46:05;6.05;;;3.63;;
56670;SDS011;42545;50.054;8.306;2023-03-17T12:48:47;4.13;;;2.85;;
56670;SDS011;42545;50.054;8.306;2023-03-17T12:51:29;4.47;;;3.42;;
56670;SDS011;42545;50.054;8.306;2023-03-17T12:54:10;6.20;;;3.42;;
56670;SDS011;42545;50.054;8.306;2023-03-17T12:56:41;5.05;;;3.08;;
56670;SDS011;42545;50.054;8.306;2023-03-17T12:59:14;8.48;;;4.18;;
56670;SDS011;42545;50.054;8.306;2023-03-17T13:01:44;5.03;;;3.30;;
56670;SDS011;42545;50.054;8.306;2023-03-17T13:04:21;4.28;;;2.60;;
56670;SDS011;42545;50.054;8.306;2023-03-17T13:06:58;3.75;;;3.00;;
56670;SDS011;42545;50.054;8.306;2023-03-17T13:12:01;4.97;;;3.75;;
56670;SDS011;42545;50.054;8.306;2023-03-17T13:14:38;4.75;;;3.30;;
56670;SDS011;42545;50.054;8.306;2023-03-17T13:19:58;4.60;;;3.30;;
56670;SDS011;42545;50.054;8.306;2023-03-17T13:22:40;4.35;;;2.88;;
56670;SDS011;42545;50.054;8.306;2023-03-17T13:25:30;4.55;;;2.60;;
56670;SDS011;42545;50.054;8.306;2023-03-17T13:28:14;5.35;;;2.97;;
56670;SDS011;42545;50.054;8.306;2023-03-17T13:30:53;4.45;;;2.60;;
56670;SDS011;42545;50.054;8.306;2023-03-17T13:33:26;6.60;;;3.95;;
56670;SDS011;42545;50.054;8.306;2023-03-17T13:36:05;6.43;;;3.92;;
56670;SDS011;42545;50.054;8.306;2023-03-17T13:39:12;5.35;;;3.58;;
56670;SDS011;42545;50.054;8.306;2023-03-17T13:41:56;3.60;;;2.55;;
56670;SDS011;42545;50.054;8.306;2023-03-17T13:44:49;4.88;;;3.33;;
56670;SDS011;42545;50.054;8.306;2023-03-17T13:47:34;5.07;;;3.00;;
56670;SDS011;42545;50.054;8.306;2023-03-17T13:50:06;5.22;;;3.20;;
56670;SDS011;42545;50.054;8.306;2023-03-17T13:52:45;4.15;;;2.50;;
56670;SDS011;42545;50.054;8.306;2023-03-17T13:55:35;5.38;;;2.90;;
56670;SDS011;42545;50.054;8.306;2023-03-17T13:58:21;4.22;;;2.92;;
56670;SDS011;42545;50.054;8.306;2023-03-17T14:00:55;3.80;;;2.42;;
56670;SDS011;42545;50.054;8.306;2023-03-17T14:03:28;3.55;;;2.67;;
56670;SDS011;42545;50.054;8.306;2023-03-17T14:06:03;5.15;;;3.17;;
56670;SDS011;42545;50.054;8.306;2023-03-17T14:08:33;4.15;;;3.05;;
56670;SDS011;42545;50.054;8.306;2023-03-17T14:11:19;4.57;;;3.00;;
56670;SDS011;42545;50.054;8.306;2023-03-17T14:14:04;3.22;;;2.65;;
56670;SDS011;42545;50.054;8.306;2023-03-17T14:16:41;4.20;;;2.53;;
56670;SDS011;42545;50.054;8.306;2023-03-17T14:19:14;12.95;;;4.90;;
56670;SDS011;42545;50.054;8.306;2023-03-17T14:21:46;8.07;;;3.22;;
56670;SDS011;42545;50.054;8.306;2023-03-17T14:24:16;6.32;;;3.20;;
56670;SDS011;42545;50.054;8.306;2023-03-17T14:26:51;4.70;;;2.60;;
56670;SDS011;42545;50.054;8.306;2023-03-17T14:29:24;3.85;;;2.40;;
56670;SDS011;42545;50.054;8.306;2023-03-17T14:32:04;4.88;;;2.55;;
56670;SDS011;42545;50.054;8.306;2023-03-17T14:34:41;4.47;;;2.70;;
56670;SDS011;42545;50.054;8.306;2023-03-17T14:37:08;5.95;;;3.65;;
56670;SDS011;42545;50.054;8.306;2023-03-17T14:39:43;7.45;;;4.15;;
56670;SDS011;42545;50.054;8.306;2023-03-17T14:42:12;5.72;;;3.55;;
56670;SDS011;42545;50.054;8.306;2023-03-17T14:44:39;5.07;;;3.33;;
56670;SDS011;42545;50.054;8.306;2023-03-17T14:47:12;6.30;;;3.40;;
56670;SDS011;42545;50.054;8.306;2023-03-17T14:49:43;6.03;;;3.28;;
56670;SDS011;42545;50.054;8.306;2023-03-17T14:52:17;6.22;;;3.65;;
56670;SDS011;42545;50.054;8.306;2023-03-17T14:54:48;13.45;;;5.47;;
56670;SDS011;42545;50.054;8.306;2023-03-17T14:57:22;6.32;;;3.15;;
56670;SDS011;42545;50.054;8.306;2023-03-17T14:59:54;5.30;;;3.30;;
56670;SDS011;42545;50.054;8.306;2023-03-17T15:02:23;4.88;;;2.78;;
56670;SDS011;42545;50.054;8.306;2023-03-17T15:04:56;6.65;;;3.15;;
56670;SDS011;42545;50.054;8.306;2023-03-17T15:07:27;3.70;;;2.40;;
56670;SDS011;42545;50.054;8.306;2023-03-17T15:09:57;5.47;;;2.83;;
56670;SDS011;42545;50.054;8.306;2023-03-17T15:12:27;4.68;;;2.55;;
56670;SDS011;42545;50.054;8.306;2023-03-17T15:14:58;5.35;;;3.03;;